createdAt,value
2022-08-02T00:02:00.381Z,16.41
2022-08-02T00:04:57.247Z,16.44
2022-08-02T00:07:54.368Z,16.19
2022-08-02T00:10:51.325Z,16.51
2022-08-02T00:13:48.283Z,16.81
2022-08-02T00:16:45.345Z,16.99
2022-08-02T00:19:42.461Z,16.89
2022-08-02T00:22:39.318Z,16.79
2022-08-02T00:25:36.180Z,17.07
2022-08-02T00:28:53.315Z,16.60
2022-08-02T00:31:50.180Z,16.02
2022-08-02T00:34:47.376Z,15.55
2022-08-02T00:37:44.513Z,15.56
2022-08-02T00:40:41.381Z,15.78
2022-08-02T00:43:39.167Z,15.70
2022-08-02T00:46:35.972Z,15.75
2022-08-02T00:49:33.448Z,15.76
2022-08-02T00:52:30.558Z,15.93
2022-08-02T00:55:31.136Z,15.79
2022-08-02T00:58:28.479Z,15.87
2022-08-02T01:01:56.626Z,15.81
2022-08-02T01:04:55.159Z,15.34
2022-08-02T01:07:52.230Z,15.44
2022-08-02T01:10:49.305Z,15.62
2022-08-02T01:13:47.256Z,15.60
2022-08-02T01:16:51.259Z,15.60
2022-08-02T01:20:12.386Z,15.30
2022-08-02T01:23:18.129Z,15.27
2022-08-02T01:26:42.562Z,15.33
2022-08-02T01:29:43.254Z,15.54
2022-08-02T01:32:45.286Z,15.44
2022-08-02T01:35:51.104Z,15.25
2022-08-02T01:38:49.590Z,15.17
2022-08-02T01:41:46.543Z,15.15
2022-08-02T01:44:43.356Z,15.27
2022-08-02T01:47:40.701Z,15.48
2022-08-02T01:50:38.260Z,15.52
2022-08-02T01:53:34.954Z,15.20
2022-08-02T01:56:32.469Z,15.00
2022-08-02T01:59:30.186Z,15.04
2022-08-02T02:02:31.583Z,15.11
2022-08-02T02:05:29.898Z,15.17
2022-08-02T02:08:32.456Z,15.10
2022-08-02T02:12:14.112Z,14.82
2022-08-02T02:14:50.027Z,14.67
2022-08-02T02:18:10.965Z,14.89
2022-08-02T02:21:08.309Z,15.03
2022-08-02T02:24:05.859Z,15.00
2022-08-02T02:27:06.722Z,14.88
2022-08-02T02:30:05.381Z,14.80
2022-08-02T02:33:03.337Z,14.66
2022-08-02T02:36:00.834Z,14.55
2022-08-02T02:39:00.446Z,14.57
2022-08-02T02:42:01.505Z,14.70
2022-08-02T02:44:59.481Z,14.52
2022-08-02T02:47:56.375Z,14.63
2022-08-02T02:50:54.158Z,14.73
2022-08-02T02:54:29.812Z,14.83
2022-08-02T02:57:09.287Z,14.85
2022-08-02T03:00:12.681Z,14.52
2022-08-02T03:03:10.419Z,14.32
2022-08-02T03:06:15.174Z,14.47
2022-08-02T03:09:13.388Z,14.63
2022-08-02T03:12:10.359Z,14.80
2022-08-02T03:15:08.292Z,14.74
2022-08-02T03:18:07.796Z,14.42
2022-08-02T03:21:06.968Z,14.21
2022-08-02T03:24:05.050Z,14.17
2022-08-02T03:27:03.077Z,14.28
2022-08-02T03:30:00.328Z,14.31
2022-08-02T03:32:57.579Z,14.20
2022-08-02T03:35:56.659Z,14.02
2022-08-02T03:38:53.681Z,14.25
2022-08-02T03:41:50.638Z,14.44
2022-08-02T03:44:48.130Z,14.58
2022-08-02T03:47:45.571Z,14.59
2022-08-02T03:50:42.730Z,14.42
2022-08-02T03:53:40.645Z,14.48
2022-08-02T03:56:37.648Z,14.37
2022-08-02T03:59:45.229Z,14.39
2022-08-02T04:02:42.259Z,14.50
2022-08-02T04:06:00.903Z,14.49
2022-08-02T04:08:56.711Z,14.19
2022-08-02T04:11:53.612Z,14.02
2022-08-02T04:14:50.443Z,14.09
2022-08-02T04:17:53.599Z,14.17
2022-08-02T04:20:50.765Z,14.10
2022-08-02T04:23:48.846Z,14.00
2022-08-02T04:26:48.139Z,14.08
2022-08-02T04:29:47.873Z,14.33
2022-08-02T04:32:45.715Z,14.47
2022-08-02T04:35:42.555Z,14.69
2022-08-02T04:38:39.490Z,14.66
2022-08-02T04:41:40.725Z,14.76
2022-08-02T04:44:41.673Z,14.57
2022-08-02T04:48:02.568Z,14.45
2022-08-02T04:50:56.703Z,14.11
2022-08-02T04:53:53.557Z,13.84
2022-08-02T04:57:22.463Z,13.75
2022-08-02T05:00:19.677Z,13.80
2022-08-02T05:03:16.707Z,13.82
2022-08-02T05:06:19.397Z,13.82
2022-08-02T05:09:16.181Z,13.88
2022-08-02T05:12:13.779Z,13.99
2022-08-02T05:15:16.672Z,14.06
2022-08-02T05:18:13.601Z,14.04
2022-08-02T05:21:11.698Z,14.21
2022-08-02T05:24:08.918Z,14.45
2022-08-02T05:27:17.075Z,14.65
2022-08-02T05:30:18.674Z,14.59
2022-08-02T05:33:15.372Z,14.47
2022-08-02T05:36:12.610Z,14.41
2022-08-02T05:39:10.816Z,14.43
2022-08-02T05:42:09.825Z,14.43
2022-08-02T05:45:08.544Z,14.54
2022-08-02T05:48:05.964Z,14.72
2022-08-02T05:51:04.477Z,14.89
2022-08-02T05:54:19.954Z,15.06
2022-08-02T05:57:31.367Z,15.08
2022-08-02T06:00:33.287Z,14.98
2022-08-02T06:03:41.026Z,15.11
2022-08-02T06:06:38.629Z,15.32
2022-08-02T06:09:35.555Z,15.39
2022-08-02T06:12:33.949Z,15.51
2022-08-02T06:15:31.786Z,15.59
2022-08-02T06:18:29.170Z,15.63
2022-08-02T06:22:31.689Z,15.75
2022-08-02T06:24:46.669Z,16.06
2022-08-02T06:27:43.672Z,16.19
2022-08-02T06:30:40.968Z,16.18
2022-08-02T06:33:38.915Z,16.27
2022-08-02T06:37:05.649Z,16.42
2022-08-02T06:40:15.210Z,16.55
2022-08-02T06:43:31.009Z,16.77
2022-08-02T06:46:37.765Z,16.94
2022-08-02T06:49:51.476Z,17.26
2022-08-02T06:52:51.747Z,17.65
2022-08-02T06:55:48.749Z,18.03
2022-08-02T06:58:45.885Z,18.20
2022-08-02T07:01:43.797Z,18.35
2022-08-02T07:04:40.612Z,18.28
2022-08-02T07:07:37.542Z,18.24
2022-08-02T07:10:38.056Z,18.15
2022-08-02T07:13:39.722Z,18.15
2022-08-02T07:16:38.143Z,18.16
2022-08-02T07:19:37.641Z,18.28
2022-08-02T07:22:35.514Z,18.48
2022-08-02T07:26:02.777Z,18.62
2022-08-02T07:28:49.590Z,18.78
2022-08-02T07:31:46.754Z,18.91
2022-08-02T07:34:50.525Z,19.42
2022-08-02T07:37:55.020Z,19.75
2022-08-02T07:40:55.688Z,19.86
2022-08-02T07:43:52.829Z,19.80
2022-08-02T07:46:49.650Z,20.01
2022-08-02T07:49:46.577Z,19.99
2022-08-02T07:52:43.412Z,20.11
2022-08-02T07:55:40.882Z,20.39
2022-08-02T07:58:37.721Z,20.54
2022-08-02T08:01:34.753Z,20.61
2022-08-02T08:04:35.871Z,20.57
2022-08-02T08:07:32.522Z,20.79
2022-08-02T08:10:29.754Z,20.99
2022-08-02T08:13:26.647Z,21.07
2022-08-02T08:16:26.184Z,20.91
2022-08-02T08:19:51.472Z,21.03
2022-08-02T08:22:40.898Z,21.08
2022-08-02T08:25:39.737Z,21.21
2022-08-02T08:28:38.839Z,21.11
2022-08-02T08:31:35.594Z,21.20
2022-08-02T08:34:32.632Z,21.33
2022-08-02T08:37:34.736Z,21.60
2022-08-02T08:40:31.402Z,21.79
2022-08-02T08:43:28.742Z,21.93
2022-08-02T08:46:32.483Z,22.07
2022-08-02T08:49:31.524Z,22.24
2022-08-02T08:52:28.810Z,22.39
2022-08-02T08:55:25.736Z,22.20
2022-08-02T08:58:22.943Z,22.29
2022-08-02T09:01:19.744Z,22.29
2022-08-02T09:04:17.383Z,22.45
2022-08-02T09:07:14.689Z,22.73
2022-08-02T09:10:32.434Z,22.99
2022-08-02T09:13:44.933Z,22.80
2022-08-02T09:16:43.372Z,22.95
2022-08-02T09:19:45.855Z,23.13
2022-08-02T09:22:43.940Z,23.47
2022-08-02T09:25:40.960Z,23.48
2022-08-02T09:29:00.908Z,23.03
2022-08-02T09:32:03.353Z,23.28
2022-08-02T09:35:00.549Z,23.44
2022-08-02T09:38:08.834Z,23.68
2022-08-02T09:41:07.202Z,23.89
2022-08-02T09:44:06.647Z,24.01
2022-08-02T09:47:14.261Z,24.14
2022-08-02T09:50:14.972Z,24.33
2022-08-02T09:53:15.817Z,24.48
2022-08-02T09:56:30.329Z,24.40
2022-08-02T09:59:29.985Z,24.76
2022-08-02T10:02:26.882Z,24.88
2022-08-02T10:05:23.855Z,25.06
2022-08-02T10:08:20.974Z,24.98
2022-08-02T10:11:17.786Z,24.68
2022-08-02T10:14:14.944Z,24.65
2022-08-02T10:17:11.962Z,24.86
2022-08-02T10:20:09.582Z,24.93
2022-08-02T10:23:08.707Z,25.04
2022-08-02T10:26:05.697Z,25.13
2022-08-02T10:29:02.806Z,25.22
2022-08-02T10:32:07.877Z,25.24
2022-08-02T10:35:18.478Z,25.25
2022-08-02T10:38:17.958Z,25.56
2022-08-02T10:41:15.007Z,25.59
2022-08-02T10:44:31.720Z,25.48
2022-08-02T10:47:30.180Z,25.52
2022-08-02T10:50:46.377Z,25.87
2022-08-02T10:53:43.709Z,25.71
2022-08-02T10:56:50.425Z,25.84
2022-08-02T10:59:49.079Z,26.04
2022-08-02T11:02:47.324Z,26.12
2022-08-02T11:06:01.930Z,26.32
2022-08-02T11:09:32.944Z,26.10
2022-08-02T11:12:30.674Z,26.07
2022-08-02T11:15:27.822Z,26.13
2022-08-02T11:18:50.796Z,26.34
2022-08-02T11:22:06.277Z,26.37
2022-08-02T11:25:32.108Z,26.36
2022-08-02T11:28:36.012Z,26.40
2022-08-02T11:31:43.168Z,26.22
2022-08-02T11:34:41.087Z,26.11
2022-08-02T11:37:40.797Z,25.99
2022-08-02T11:40:38.614Z,26.05
2022-08-02T11:43:35.603Z,26.18
2022-08-02T11:46:33.016Z,26.42
2022-08-02T11:49:30.566Z,26.67
2022-08-02T11:52:33.141Z,26.74
2022-08-02T11:55:30.486Z,26.95
2022-08-02T11:58:27.808Z,27.07
2022-08-02T12:01:24.762Z,26.85
2022-08-02T12:04:22.846Z,26.81
2022-08-02T12:07:34.638Z,27.08
2022-08-02T12:10:32.849Z,26.86
2022-08-02T12:13:44.791Z,26.78
2022-08-02T12:17:12.414Z,27.12
2022-08-02T12:20:11.057Z,26.95
2022-08-02T12:23:08.839Z,26.81
2022-08-02T12:26:06.534Z,27.01
2022-08-02T12:29:03.967Z,27.12
2022-08-02T12:32:05.678Z,26.95
2022-08-02T12:35:07.499Z,27.02
2022-08-02T12:38:09.927Z,27.28
2022-08-02T12:41:31.185Z,27.30
2022-08-02T12:44:29.606Z,27.39
2022-08-02T12:47:35.490Z,27.29
2022-08-02T12:50:34.814Z,27.14
2022-08-02T12:53:33.320Z,27.08
2022-08-02T12:56:32.391Z,27.21
2022-08-02T12:59:38.392Z,27.50
2022-08-02T13:02:36.692Z,27.45
2022-08-02T13:05:55.818Z,27.46
2022-08-02T13:08:54.561Z,27.55
2022-08-02T13:11:52.139Z,27.70
2022-08-02T13:14:49.815Z,27.89
2022-08-02T13:17:47.006Z,27.94
2022-08-02T13:20:45.663Z,27.78
2022-08-02T13:23:54.960Z,27.91
2022-08-02T13:26:52.881Z,27.77
2022-08-02T13:29:50.714Z,27.80
2022-08-02T13:32:48.094Z,27.86
2022-08-02T13:35:45.125Z,27.69
2022-08-02T13:38:41.742Z,27.65
2022-08-02T13:41:38.880Z,27.68
2022-08-02T13:44:36.186Z,27.69
2022-08-02T13:47:36.386Z,27.89
2022-08-02T13:50:50.155Z,28.07
2022-08-02T13:53:47.170Z,27.96
2022-08-02T13:56:43.736Z,27.98
2022-08-02T13:59:56.123Z,28.02
2022-08-02T14:02:56.082Z,27.94
2022-08-02T14:05:52.977Z,27.88
2022-08-02T14:08:49.772Z,27.99
2022-08-02T14:11:46.912Z,28.14
2022-08-02T14:14:43.978Z,28.36
2022-08-02T14:17:41.034Z,28.57
2022-08-02T14:20:37.764Z,28.64
2022-08-02T14:23:49.764Z,28.61
2022-08-02T14:26:48.264Z,28.19
2022-08-02T14:29:44.567Z,28.11
2022-08-02T14:32:41.647Z,27.81
2022-08-02T14:35:39.281Z,28.14
2022-08-02T14:38:37.845Z,28.42
2022-08-02T14:41:58.321Z,28.32
2022-08-02T14:44:54.004Z,28.38
2022-08-02T14:47:51.009Z,28.26
2022-08-02T14:50:47.668Z,28.35
2022-08-02T14:53:49.724Z,28.40
2022-08-02T14:57:02.325Z,28.51
2022-08-02T15:00:01.585Z,28.39
2022-08-02T15:02:59.130Z,28.24
2022-08-02T15:05:57.348Z,28.43
2022-08-02T15:08:54.760Z,28.34
2022-08-02T15:11:51.921Z,28.29
2022-08-02T15:14:49.877Z,27.99
2022-08-02T15:17:46.844Z,27.90
2022-08-02T15:20:50.772Z,28.01
2022-08-02T15:23:54.825Z,28.00
2022-08-02T15:26:52.838Z,28.02
2022-08-02T15:29:50.249Z,28.02
2022-08-02T15:32:52.870Z,28.17
2022-08-02T15:35:50.871Z,28.18
2022-08-02T15:38:48.269Z,28.15
2022-08-02T15:41:47.980Z,28.39
2022-08-02T15:44:45.650Z,28.39
2022-08-02T15:47:48.216Z,28.34
2022-08-02T15:50:47.870Z,28.40
2022-08-02T15:53:44.904Z,28.40
2022-08-02T15:56:47.216Z,28.44
2022-08-02T15:59:44.160Z,28.56
2022-08-02T16:02:41.310Z,28.73
2022-08-02T16:05:38.258Z,28.41
2022-08-02T16:08:35.148Z,28.35
2022-08-02T16:11:31.979Z,28.29
2022-08-02T16:14:29.649Z,28.28
2022-08-02T16:17:51.682Z,28.31
2022-08-02T16:20:44.236Z,28.57
2022-08-02T16:24:00.736Z,28.39
2022-08-02T16:26:58.482Z,28.28
2022-08-02T16:29:56.093Z,28.36
2022-08-02T16:32:52.939Z,28.62
2022-08-02T16:35:50.322Z,28.95
2022-08-02T16:38:47.536Z,29.19
2022-08-02T16:41:51.288Z,29.05
2022-08-02T16:44:53.339Z,28.89
2022-08-02T16:47:57.270Z,28.99
2022-08-02T16:50:56.327Z,28.98
2022-08-02T16:53:59.876Z,28.82
2022-08-02T16:56:58.035Z,28.70
2022-08-02T16:59:57.241Z,28.49
2022-08-02T17:02:59.295Z,28.35
2022-08-02T17:05:57.374Z,28.46
2022-08-02T17:08:56.375Z,28.74
2022-08-02T17:11:54.081Z,28.84
2022-08-02T17:14:54.860Z,28.82
2022-08-02T17:17:53.310Z,28.79
2022-08-02T17:20:50.227Z,28.79
2022-08-02T17:24:06.036Z,28.75
2022-08-02T17:27:05.201Z,28.91
2022-08-02T17:30:02.112Z,29.02
2022-08-02T17:33:00.470Z,29.18
2022-08-02T17:36:00.173Z,29.04
2022-08-02T17:38:58.306Z,29.14
2022-08-02T17:41:54.938Z,29.25
2022-08-02T17:44:53.591Z,29.04
2022-08-02T17:48:03.913Z,28.84
2022-08-02T17:51:02.307Z,28.97
2022-08-02T17:53:59.500Z,28.86
2022-08-02T17:56:58.285Z,28.90
2022-08-02T18:00:04.215Z,29.00
2022-08-02T18:03:05.809Z,29.10
2022-08-02T18:06:05.108Z,29.10
2022-08-02T18:09:07.546Z,29.19
2022-08-02T18:12:05.646Z,29.07
2022-08-02T18:15:06.670Z,28.83
2022-08-02T18:18:11.119Z,28.79
2022-08-02T18:21:22.085Z,28.81
2022-08-02T18:24:24.132Z,28.67
2022-08-02T18:27:21.558Z,28.55
2022-08-02T18:30:23.070Z,28.41
2022-08-02T18:33:57.154Z,28.46
2022-08-02T18:36:47.373Z,28.51
2022-08-02T18:39:51.411Z,28.58
2022-08-02T18:42:49.195Z,28.44
2022-08-02T18:46:05.883Z,28.37
2022-08-02T18:49:06.802Z,28.45
2022-08-02T18:52:12.609Z,28.49
2022-08-02T18:55:10.501Z,28.48
2022-08-02T18:58:20.210Z,28.42
2022-08-02T19:01:31.870Z,28.37
2022-08-02T19:04:30.657Z,28.39
2022-08-02T19:07:50.522Z,28.39
2022-08-02T19:10:49.302Z,28.28
2022-08-02T19:13:47.534Z,28.25
2022-08-02T19:16:46.296Z,28.04
2022-08-02T19:19:45.510Z,27.78
2022-08-02T19:22:44.332Z,27.68
2022-08-02T19:25:45.210Z,27.64
2022-08-02T19:28:52.989Z,27.65
2022-08-02T19:32:00.178Z,27.55
2022-08-02T19:35:03.965Z,27.75
2022-08-02T19:38:17.099Z,27.57
2022-08-02T19:41:15.737Z,27.31
2022-08-02T19:44:24.593Z,26.96
2022-08-02T19:47:26.278Z,26.65
2022-08-02T19:50:36.121Z,26.53
2022-08-02T19:53:46.619Z,26.45
2022-08-02T19:56:47.591Z,26.50
2022-08-02T19:59:45.071Z,26.59
2022-08-02T20:02:43.352Z,26.60
2022-08-02T20:05:46.511Z,26.49
2022-08-02T20:08:53.478Z,26.48
2022-08-02T20:11:55.222Z,26.44
2022-08-02T20:14:55.070Z,26.20
2022-08-02T20:17:52.314Z,26.13
2022-08-02T20:20:49.181Z,26.15
2022-08-02T20:23:46.497Z,26.05
2022-08-02T20:26:48.914Z,25.87
2022-08-02T20:29:49.838Z,25.88
2022-08-02T20:32:52.755Z,25.87
2022-08-02T20:35:53.182Z,25.58
2022-08-02T20:38:50.207Z,25.53
2022-08-02T20:41:51.881Z,25.60
2022-08-02T20:44:55.159Z,25.69
2022-08-02T20:47:54.422Z,25.65
2022-08-02T20:50:54.104Z,25.59
2022-08-02T20:53:55.209Z,25.49
2022-08-02T20:56:53.515Z,25.30
2022-08-02T20:59:51.963Z,25.16
2022-08-02T21:02:49.601Z,25.14
2022-08-02T21:05:54.873Z,25.38
2022-08-02T21:08:53.109Z,25.42
2022-08-02T21:11:50.811Z,25.29
2022-08-02T21:14:48.287Z,25.23
2022-08-02T21:17:55.020Z,25.20
2022-08-02T21:20:56.524Z,25.24
2022-08-02T21:23:54.679Z,25.09
2022-08-02T21:26:52.522Z,24.90
2022-08-02T21:29:52.331Z,24.65
2022-08-02T21:32:54.744Z,24.46
2022-08-02T21:35:54.463Z,24.37
2022-08-02T21:38:51.479Z,24.27
2022-08-02T21:41:49.494Z,24.30
2022-08-02T21:44:46.513Z,24.12
2022-08-02T21:47:50.934Z,23.97
2022-08-02T21:50:49.331Z,24.14
2022-08-02T21:54:17.592Z,24.34
2022-08-02T21:57:04.497Z,24.17
2022-08-02T22:00:01.346Z,23.91
2022-08-02T22:02:58.476Z,23.73
2022-08-02T22:05:56.444Z,23.74
2022-08-02T22:08:53.332Z,23.93
2022-08-02T22:11:52.445Z,23.79
2022-08-02T22:14:54.987Z,23.67
2022-08-02T22:17:59.978Z,23.64
2022-08-02T22:20:57.475Z,23.72
2022-08-02T22:23:55.509Z,23.60
2022-08-02T22:26:52.430Z,23.66
2022-08-02T22:29:49.461Z,23.87
2022-08-02T22:33:14.991Z,24.14
2022-08-02T22:36:12.671Z,24.07
2022-08-02T22:39:18.803Z,23.85
2022-08-02T22:42:16.829Z,23.84
2022-08-02T22:45:14.521Z,23.95
2022-08-02T22:48:11.702Z,24.07
2022-08-02T22:51:08.448Z,24.04
2022-08-02T22:54:05.475Z,24.16
2022-08-02T22:57:11.234Z,23.97
2022-08-02T23:00:11.266Z,23.82
2022-08-02T23:03:08.659Z,23.54
2022-08-02T23:06:06.221Z,23.27
2022-08-02T23:09:03.346Z,23.35
2022-08-02T23:12:00.295Z,23.40
2022-08-02T23:14:57.312Z,23.34
2022-08-02T23:18:12.633Z,23.23
2022-08-02T23:21:11.394Z,23.16
2022-08-02T23:24:08.311Z,23.25
2022-08-02T23:27:05.632Z,23.31
2022-08-02T23:30:02.446Z,23.17
2022-08-02T23:33:00.503Z,22.99
2022-08-02T23:35:59.587Z,22.99
2022-08-02T23:38:56.806Z,23.05
2022-08-02T23:41:55.994Z,22.91
2022-08-02T23:44:53.969Z,22.93
2022-08-02T23:47:51.521Z,22.98
2022-08-02T23:50:48.471Z,22.98
2022-08-02T23:53:45.929Z,22.91
2022-08-02T23:56:43.268Z,22.74
2022-08-02T23:59:40.310Z,22.70
